Time;durP1;ratioP1;P1;durP2;ratioP2;P2;SDS_P1;SDS_P2;PMS_P1;PMS_P2;Temp;Humidity;BMP_temperature;BMP_pressure;BME280_temperature;BME280_humidity;BME280_pressure;Samples;Min_cycle;Max_cycle;Signal;HPM_P1;HPM_P2
2022/11/13 00:00:53;;;;;;;26.52;11.35;;;;;;;10.54;79.30;100949.78;5018385;28;20546;-50
2022/11/13 00:03:19;;;;;;;27.75;11.18;;;;;;;10.55;78.44;100948.06;5021093;28;20144;-48
2022/11/13 00:05:46;;;;;;;27.95;13.98;;;;;;;10.54;79.54;100942.00;5020222;28;20042;-48
2022/11/13 00:08:13;;;;;;;28.75;13.90;;;;;;;10.54;78.46;100939.44;5019685;28;20073;-49
2022/11/13 00:10:40;;;;;;;27.90;11.80;;;;;;;10.56;79.27;100941.16;5020153;28;20073;-48
2022/11/13 00:13:07;;;;;;;25.00;11.35;;;;;;;10.56;78.68;100936.84;5018349;28;20077;-50
2022/11/13 00:15:33;;;;;;;29.00;14.27;;;;;;;10.54;78.60;100936.84;5020835;28;20052;-49
2022/11/13 00:18:01;;;;;;;27.20;14.07;;;;;;;10.54;78.94;100936.84;5017767;28;20050;-49
2022/11/13 00:20:28;;;;;;;28.08;14.13;;;;;;;10.53;78.48;100934.22;5014080;28;20046;-50
2022/11/13 00:22:55;;;;;;;22.30;10.30;;;;;;;10.52;79.10;100938.56;5014639;28;20112;-51
2022/11/13 00:25:22;;;;;;;24.15;10.70;;;;;;;10.50;79.54;100929.88;5019147;28;20148;-51
2022/11/13 00:27:48;;;;;;;26.60;10.77;;;;;;;10.48;79.62;100931.59;5019236;28;20092;-50
2022/11/13 00:30:15;;;;;;;27.95;13.25;;;;;;;10.48;78.70;100931.59;5018139;28;20141;-49
2022/11/13 00:32:45;;;;;;;28.27;13.93;;;;;;;10.48;79.57;100926.41;5017987;28;20258;-48
2022/11/13 00:35:12;;;;;;;30.65;11.80;;;;;;;10.46;78.66;100925.53;5005396;28;20065;-49
2022/11/13 00:37:38;;;;;;;25.70;10.93;;;;;;;10.47;79.50;100927.25;5007699;28;20054;-51
2022/11/13 00:40:05;;;;;;;28.73;11.13;;;;;;;10.49;79.12;100916.91;5005040;28;20129;-49
2022/11/13 00:42:32;;;;;;;23.55;10.73;;;;;;;10.47;79.34;100916.88;5004448;28;20046;-51
2022/11/13 00:44:59;;;;;;;25.10;11.07;;;;;;;10.46;79.40;100914.28;5003366;28;20053;-48
2022/11/13 00:47:25;;;;;;;27.38;11.45;;;;;;;10.44;79.31;100916.84;5002553;28;20085;-48
2022/11/13 00:49:52;;;;;;;27.42;12.25;;;;;;;10.43;79.91;100907.31;5002482;28;20341;-48
2022/11/13 00:52:18;;;;;;;32.60;11.98;;;;;;;10.41;79.22;100909.03;5002978;28;20121;-47
2022/11/13 00:54:45;;;;;;;156.90;13.15;;;;;;;10.33;79.67;100921.03;5004849;28;20088;-47
2022/11/13 00:57:12;;;;;;;145.40;13.13;;;;;;;10.26;79.11;100917.47;5007271;28;20084;-48
2022/11/13 00:59:38;;;;;;;151.95;11.48;;;;;;;10.19;79.17;100913.94;5004567;28;20537;-49
2022/11/13 01:02:05;;;;;;;208.10;13.50;;;;;;;10.03;79.06;100913.72;5006314;28;20565;-50
2022/11/13 01:04:31;;;;;;;170.65;11.88;;;;;;;9.94;78.85;100908.44;5004721;28;20038;-49
2022/11/13 01:06:58;;;;;;;141.38;11.52;;;;;;;9.87;78.84;100912.66;5006652;28;20728;-50
2022/11/13 01:09:25;;;;;;;113.93;10.30;;;;;;;9.80;78.69;100907.38;5005551;28;20057;-47
2022/11/13 01:11:51;;;;;;;38.70;9.55;;;;;;;9.76;79.26;100906.44;5005452;28;20050;-48
2022/11/13 01:14:18;;;;;;;46.88;9.70;;;;;;;9.75;78.63;100908.19;5004570;28;20038;-52
2022/11/13 01:16:45;;;;;;;34.03;11.05;;;;;;;9.74;78.79;100910.75;5003564;28;20084;-48
2022/11/13 01:19:11;;;;;;;25.77;11.05;;;;;;;9.76;78.83;100920.25;5004522;28;20050;-50
2022/11/13 01:21:38;;;;;;;64.82;11.25;;;;;;;9.75;79.08;100910.78;5006437;28;20046;-49
2022/11/13 01:24:05;;;;;;;44.97;11.20;;;;;;;9.69;78.85;100907.22;5002636;28;20125;-48
2022/11/13 01:26:32;;;;;;;274.73;18.98;;;;;;;9.67;79.48;100903.75;5006762;28;20056;-48
2022/11/13 01:28:59;;;;;;;241.23;16.63;;;;;;;9.60;80.03;100902.78;5002442;28;20080;-49
2022/11/13 01:31:30;;;;;;;208.70;16.15;;;;;;;9.56;79.86;100901.00;5004467;28;20136;-51
2022/11/13 01:33:57;;;;;;;145.85;14.07;;;;;;;9.55;79.12;100894.09;5002690;28;20124;-48
2022/11/13 01:36:26;;;;;;;202.05;17.27;;;;;;;9.52;79.33;100900.06;5004557;28;20119;-50
2022/11/13 01:38:54;;;;;;;193.35;15.88;;;;;;;9.49;80.09;100890.53;4984954;28;20050;-48
2022/11/13 01:41:25;;;;;;;170.63;13.23;;;;;;;9.42;81.20;100893.88;5004449;28;20129;-49
2022/11/13 01:43:53;;;;;;;159.05;14.82;;;;;;;9.45;80.67;100898.22;4997534;28;20577;-49
2022/11/13 01:51:49;;;;;;;165.35;17.77;;;;;;;9.48;81.90;100883.66;5058373;28;20392;-53
2022/11/13 01:54:20;;;;;;;170.05;17.35;;;;;;;9.45;82.14;100872.38;5014527;28;20045;-51
2022/11/13 01:56:47;;;;;;;160.95;17.85;;;;;;;9.53;81.65;100875.97;5018740;28;20053;-48
2022/11/13 01:59:19;;;;;;;130.57;17.00;;;;;;;9.59;81.89;100870.00;5018960;28;20045;-49
2022/11/13 02:01:45;;;;;;;139.15;15.85;;;;;;;9.60;82.08;100862.25;5015115;28;20180;-48
2022/11/13 02:04:13;;;;;;;120.18;17.27;;;;;;;9.66;82.68;100876.13;5019408;28;20049;-52
2022/11/13 02:06:46;;;;;;;126.25;16.20;;;;;;;9.67;81.58;100878.75;5011224;28;20524;-49
2022/11/13 02:09:16;;;;;;;122.25;16.40;;;;;;;9.70;82.29;100881.38;5018225;28;20073;-49
2022/11/13 02:11:43;;;;;;;117.88;14.05;;;;;;;9.70;82.05;100876.22;5031414;28;20595;-49
2022/11/13 02:14:12;;;;;;;101.75;16.52;;;;;;;9.75;81.82;100871.97;5015541;28;20601;-47
2022/11/13 02:16:41;;;;;;;103.15;15.68;;;;;;;9.76;81.87;100875.41;5019456;28;20143;-51
2022/11/13 02:19:16;;;;;;;101.90;15.45;;;;;;;9.77;82.24;100859.91;5016627;28;20142;-49
2022/11/13 02:21:53;;;;;;;97.15;14.52;;;;;;;9.80;82.24;100858.22;5014903;28;20041;-49
2022/11/13 02:24:28;;;;;;;135.15;15.40;;;;;;;9.81;82.20;100860.81;5012512;28;20077;-48
2022/11/13 02:27:01;;;;;;;113.65;15.30;;;;;;;9.82;82.20;100857.38;5017702;28;20056;-48
2022/11/13 02:29:28;;;;;;;93.47;15.73;;;;;;;9.80;82.08;100858.22;5015766;28;20145;-47
2022/11/13 02:31:55;;;;;;;158.90;17.13;;;;;;;9.82;82.32;100861.69;5018215;28;20041;-48
2022/11/13 02:34:22;;;;;;;87.80;14.98;;;;;;;9.85;81.82;100861.72;5014640;28;20125;-48
2022/11/13 02:36:49;;;;;;;99.68;15.52;;;;;;;9.88;81.85;100862.66;5016321;28;20145;-49
2022/11/13 02:39:15;;;;;;;112.78;15.85;;;;;;;9.86;81.77;100856.56;5018670;28;20104;-47
2022/11/13 02:41:42;;;;;;;107.35;15.13;;;;;;;9.81;82.66;100858.25;5019579;28;20046;-51
2022/11/13 02:44:09;;;;;;;116.75;12.65;;;;;;;9.82;81.84;100852.22;5017407;28;20553;-48
2022/11/13 02:46:36;;;;;;;76.95;13.52;;;;;;;9.80;82.19;100851.34;5018527;28;20107;-47
2022/11/13 02:49:03;;;;;;;102.05;13.35;;;;;;;9.81;82.33;100844.44;5019938;28;20452;-48
2022/11/13 02:51:30;;;;;;;152.40;17.67;;;;;;;9.82;82.18;100840.97;5012776;28;20050;-48
2022/11/13 02:53:56;;;;;;;152.85;15.75;;;;;;;9.76;82.75;100840.06;5012679;28;20073;-52
2022/11/13 02:56:23;;;;;;;129.60;13.43;;;;;;;9.73;82.71;100837.44;5020585;28;20555;-50
2022/11/13 02:58:50;;;;;;;155.27;17.13;;;;;;;9.69;83.47;100833.06;5019537;28;20128;-49
2022/11/13 03:01:16;;;;;;;143.23;15.32;;;;;;;9.73;83.31;100842.59;5012665;28;20632;-49
2022/11/13 03:03:43;;;;;;;206.35;17.10;;;;;;;9.65;83.09;100841.63;5003585;28;20053;-52
2022/11/13 03:06:25;;;;;;;150.23;16.02;;;;;;;9.63;83.69;100838.16;5006815;28;20069;-49
2022/11/13 03:08:51;;;;;;;161.30;16.08;;;;;;;9.66;83.88;100833.00;5006616;28;20133;-50
2022/11/13 03:11:18;;;;;;;154.25;14.60;;;;;;;9.68;83.54;100828.75;5005507;28;20545;-48
2022/11/13 03:13:45;;;;;;;150.50;16.63;;;;;;;9.72;83.40;100827.94;5004582;28;20058;-52
2022/11/13 03:16:14;;;;;;;175.63;17.77;;;;;;;9.73;83.91;100831.41;5003869;28;20158;-50
2022/11/13 03:18:41;;;;;;;188.73;15.63;;;;;;;9.76;83.36;100836.59;5005560;28;20081;-49
2022/11/13 03:21:11;;;;;;;171.98;15.90;;;;;;;9.79;82.87;100834.06;5005671;28;20509;-47
2022/11/13 03:23:40;;;;;;;144.13;12.80;;;;;;;9.83;82.90;100827.22;5006822;28;20446;-51
2022/11/13 03:26:09;;;;;;;160.13;16.17;;;;;;;9.88;82.46;100829.00;5002241;28;20514;-49
2022/11/13 03:28:36;;;;;;;241.57;18.35;;;;;;;9.89;82.66;100833.34;5003622;28;20475;-50
2022/11/13 03:31:03;;;;;;;183.23;16.50;;;;;;;9.90;83.43;100829.03;5005276;28;20425;-53
2022/11/13 03:33:30;;;;;;;183.13;16.92;;;;;;;9.91;83.40;100825.59;5004797;28;20057;-50
2022/11/13 03:35:57;;;;;;;129.73;16.08;;;;;;;9.95;82.58;100829.06;5005521;28;20045;-51
2022/11/13 03:38:24;;;;;;;114.43;14.23;;;;;;;9.95;83.01;100827.38;5002768;28;20050;-50
2022/11/13 03:40:51;;;;;;;119.30;14.10;;;;;;;10.01;82.58;100827.44;5001423;28;20065;-51
2022/11/13 03:43:18;;;;;;;128.43;13.25;;;;;;;9.96;83.28;100829.09;5002093;28;20413;-50
2022/11/13 03:45:46;;;;;;;61.80;11.90;;;;;;;10.03;83.46;100825.72;5000766;28;20114;-49
2022/11/13 03:48:14;;;;;;;84.65;10.27;;;;;;;10.05;83.52;100822.28;5003691;28;20442;-49
2022/11/13 03:50:43;;;;;;;119.40;12.65;;;;;;;10.06;84.31;100818.88;4987924;28;20137;-48
2022/11/13 03:53:12;;;;;;;68.78;11.18;;;;;;;10.06;83.93;100811.09;5001401;28;20045;-52
2022/11/13 03:55:39;;;;;;;120.72;12.88;;;;;;;10.12;83.17;100808.56;5003514;28;20425;-51
2022/11/13 03:58:06;;;;;;;60.95;11.63;;;;;;;10.18;83.66;100802.59;5006485;28;20129;-48
2022/11/13 04:00:33;;;;;;;79.72;11.40;;;;;;;10.22;84.38;100805.25;5000890;28;20037;-51
2022/11/13 04:03:00;;;;;;;53.65;9.80;;;;;;;10.21;84.21;100800.94;5002830;28;20074;-49
2022/11/13 04:05:26;;;;;;;114.72;11.10;;;;;;;10.22;84.71;100807.84;5003268;28;20092;-49
2022/11/13 04:07:53;;;;;;;118.10;11.23;;;;;;;10.23;84.33;100804.38;5001633;28;20309;-51
2022/11/13 04:10:20;;;;;;;165.82;11.70;;;;;;;10.26;84.91;100800.94;4999997;28;20074;-51
2022/11/13 04:12:47;;;;;;;118.05;10.98;;;;;;;10.26;85.58;100796.66;5002886;28;20050;-50
2022/11/13 04:15:14;;;;;;;103.20;9.63;;;;;;;10.33;84.71;100791.56;5001381;28;20592;-48
2022/11/13 04:17:41;;;;;;;108.85;10.85;;;;;;;10.38;84.21;100795.94;5001850;28;20050;-51
2022/11/13 04:20:09;;;;;;;139.90;12.10;;;;;;;10.39;84.01;100794.19;5003104;28;20045;-49
2022/11/13 04:22:36;;;;;;;55.97;9.27;;;;;;;10.38;84.73;100793.34;4998561;28;20053;-49
2022/11/13 04:25:03;;;;;;;45.63;8.85;;;;;;;10.41;84.93;100784.72;5003083;28;20537;-49
2022/11/13 04:27:30;;;;;;;154.23;11.27;;;;;;;10.40;85.19;100788.16;5005754;28;20050;-51
2022/11/13 04:29:56;;;;;;;126.13;11.32;;;;;;;10.42;85.09;100786.44;5002387;28;20129;-48
2022/11/13 04:32:23;;;;;;;143.52;11.43;;;;;;;10.44;84.43;100786.47;5004347;28;20042;-49
2022/11/13 04:34:50;;;;;;;94.32;9.43;;;;;;;10.40;84.68;100782.97;5002506;28;20554;-52
2022/11/13 04:37:17;;;;;;;93.55;10.50;;;;;;;10.42;85.58;100770.91;5003432;28;20049;-51
2022/11/13 04:39:43;;;;;;;118.50;10.75;;;;;;;10.44;84.91;100777.00;5001660;28;20073;-49
2022/11/13 04:44:57;;;;;;;46.58;8.77;;;;;;;10.47;85.88;100771.84;5003756;28;20132;-52
2022/11/13 04:47:24;;;;;;;75.53;8.80;;;;;;;10.47;85.17;100763.22;5001346;28;20082;-52
2022/11/13 04:49:50;;;;;;;58.67;9.82;;;;;;;10.51;85.26;100755.47;5002040;28;20125;-53
2022/11/13 04:52:17;;;;;;;90.90;11.13;;;;;;;10.54;85.78;100754.66;4999098;28;20050;-48
2022/11/13 04:54:44;;;;;;;140.15;11.88;;;;;;;10.55;85.13;100758.97;4998016;28;20062;-51
2022/11/13 04:57:11;;;;;;;117.90;11.45;;;;;;;10.53;85.41;100748.59;5002258;28;20045;-50
2022/11/13 04:59:37;;;;;;;104.47;11.02;;;;;;;10.56;85.40;100750.34;5004290;28;20128;-50
2022/11/13 05:02:04;;;;;;;191.65;14.68;;;;;;;10.59;85.90;100741.72;4998345;28;20069;-52
2022/11/13 05:04:30;;;;;;;127.38;10.02;;;;;;;10.60;85.79;100733.13;5004745;28;20439;-49
2022/11/13 05:06:57;;;;;;;179.88;13.93;;;;;;;10.65;84.96;100732.31;5001867;28;20544;-49
2022/11/13 05:09:24;;;;;;;88.85;9.52;;;;;;;10.55;86.74;100735.66;5005698;28;20097;-51
2022/11/13 05:11:50;;;;;;;61.72;9.00;;;;;;;10.56;86.22;100724.44;5001657;28;20042;-52
2022/11/13 05:14:17;;;;;;;137.43;11.80;;;;;;;10.64;86.42;100719.34;5004505;28;20053;-51
2022/11/13 05:16:44;;;;;;;147.95;13.23;;;;;;;10.62;85.96;100721.03;4999687;28;20145;-49
2022/11/13 05:19:10;;;;;;;166.52;13.55;;;;;;;10.68;86.37;100715.91;5002117;28;20045;-49
2022/11/13 05:21:38;;;;;;;108.93;11.45;;;;;;;10.67;86.27;100719.34;5004062;28;20152;-51
2022/11/13 05:24:05;;;;;;;129.85;11.95;;;;;;;10.61;86.71;100719.31;5002646;28;20045;-51
2022/11/13 05:26:32;;;;;;;99.32;10.43;;;;;;;10.62;86.98;100710.69;4999990;28;20092;-49
2022/11/13 05:28:59;;;;;;;99.22;10.73;;;;;;;10.68;86.08;100715.91;5000337;28;20042;-52
2022/11/13 05:31:26;;;;;;;170.15;12.25;;;;;;;10.66;86.14;100717.63;4997954;28;20181;-49
2022/11/13 05:33:53;;;;;;;138.63;11.68;;;;;;;10.70;85.87;100718.53;5002449;28;20042;-51
2022/11/13 05:36:21;;;;;;;207.75;14.05;;;;;;;10.75;86.60;100712.53;5002289;28;20568;-49
2022/11/13 05:38:48;;;;;;;117.75;10.55;;;;;;;10.72;85.69;100714.19;5000253;28;20577;-51
2022/11/13 05:41:17;;;;;;;71.20;10.40;;;;;;;10.70;86.42;100719.38;5001000;28;20044;-49
2022/11/13 05:43:44;;;;;;;97.88;10.95;;;;;;;10.72;86.29;100707.31;4999457;28;20069;-50
2022/11/13 05:46:14;;;;;;;102.25;10.73;;;;;;;10.73;85.72;100708.16;5002085;28;20141;-50
2022/11/13 05:48:41;;;;;;;;;;;;;;;10.65;85.83;100708.13;5000126;28;20185;-52
2022/11/13 05:53:46;;;;;;;116.30;9.27;;;;;;;10.73;86.23;100703.84;5024817;28;20398;-52
2022/11/13 05:56:16;;;;;;;66.13;8.07;;;;;;;10.69;86.45;100701.22;4995755;28;20058;-48
2022/11/13 05:58:44;;;;;;;63.83;6.15;;;;;;;10.70;86.74;100693.47;5000094;28;20081;-51
2022/11/13 06:01:14;;;;;;;161.20;10.52;;;;;;;10.70;86.13;100701.22;4993728;28;20090;-49
2022/11/13 06:03:42;;;;;;;127.40;8.57;;;;;;;10.70;86.22;100697.81;4998039;28;20279;-49
2022/11/13 06:06:15;;;;;;;99.63;8.02;;;;;;;10.66;85.76;100691.72;5000182;28;20129;-49
2022/11/13 06:08:42;;;;;;;114.00;8.20;;;;;;;10.72;85.58;100696.94;5000008;28;20058;-50
2022/11/13 06:11:12;;;;;;;175.70;10.90;;;;;;;10.77;85.66;100687.47;4996264;28;20721;-49
2022/11/13 06:13:39;;;;;;;104.03;8.98;;;;;;;10.75;85.91;100681.44;5001203;28;20082;-51
2022/11/13 06:16:11;;;;;;;100.30;8.23;;;;;;;10.68;86.33;100684.81;4998913;28;20157;-49
2022/11/13 06:18:39;;;;;;;167.85;9.70;;;;;;;10.66;86.75;100676.16;5000641;28;20080;-51
2022/11/13 06:21:08;;;;;;;186.48;10.65;;;;;;;10.68;86.47;100674.47;4999786;28;20486;-49
2022/11/13 06:23:36;;;;;;;123.05;9.65;;;;;;;10.71;85.45;100677.06;4998167;28;20053;-53
2022/11/13 06:26:06;;;;;;;89.22;7.45;;;;;;;10.67;85.77;100683.06;4998917;28;20080;-50
2022/11/13 06:28:34;;;;;;;68.85;7.65;;;;;;;10.66;87.10;100671.88;4997102;28;20078;-52
2022/11/13 06:31:04;;;;;;;135.73;9.75;;;;;;;10.75;85.32;100680.53;4981911;28;20121;-50
2022/11/13 06:33:31;;;;;;;177.38;10.77;;;;;;;10.74;86.78;100684.84;4997517;28;20049;-50
2022/11/13 06:36:01;;;;;;;152.75;9.90;;;;;;;10.76;86.36;100679.69;4993781;28;20119;-51
2022/11/13 06:38:31;;;;;;;218.50;12.57;;;;;;;10.83;85.87;100678.00;5010968;28;20042;-50
2022/11/13 06:40:58;;;;;;;;;;;;;;;10.68;87.10;100679.66;4996221;28;20048;-49
2022/11/13 06:43:26;;;;;;;124.78;9.85;;;;;;;10.70;87.40;100682.25;4987382;28;20008;-50
2022/11/13 06:45:54;;;;;;;117.88;8.40;;;;;;;10.72;86.99;100686.59;4974947;28;20078;-49
2022/11/13 06:48:21;;;;;;;126.03;8.10;;;;;;;10.71;86.38;100690.00;4995536;28;20134;-49
2022/11/13 06:50:48;;;;;;;159.32;10.63;;;;;;;10.76;86.51;100690.94;4998818;28;20054;-49
2022/11/13 06:53:16;;;;;;;146.20;9.20;;;;;;;10.83;86.65;100694.41;4995479;28;20073;-51
2022/11/13 06:55:46;;;;;;;142.57;9.90;;;;;;;10.87;85.79;100703.94;4994782;28;20050;-52
2022/11/13 06:58:13;;;;;;;49.65;7.03;;;;;;;10.80;86.45;100695.28;4993619;28;20140;-51
2022/11/13 07:00:41;;;;;;;157.15;11.75;;;;;;;10.87;86.43;100700.47;4992121;28;20085;-51
2022/11/13 07:03:16;;;;;;;159.07;10.98;;;;;;;10.85;86.58;100704.78;4991419;28;20057;-48
2022/11/13 07:05:44;;;;;;;155.45;10.27;;;;;;;10.89;85.97;100711.72;4981972;28;20137;-51
2022/11/13 07:08:11;;;;;;;92.35;7.70;;;;;;;10.83;86.66;100707.38;4983438;28;20047;-48
2022/11/13 07:10:38;;;;;;;117.90;9.57;;;;;;;10.91;85.34;100705.69;4978266;28;20077;-49
2022/11/13 07:13:06;;;;;;;171.02;10.82;;;;;;;10.95;85.27;100714.38;4983368;28;20141;-49
2022/11/13 07:15:34;;;;;;;193.00;11.48;;;;;;;10.99;85.41;100710.94;4982394;28;20098;-53
2022/11/13 07:18:02;;;;;;;202.00;11.10;;;;;;;11.02;85.85;100710.09;4999115;28;20602;-49
2022/11/13 07:20:29;;;;;;;109.93;8.80;;;;;;;10.98;86.14;100709.19;4985466;28;20395;-50
2022/11/13 07:22:58;;;;;;;200.60;11.93;;;;;;;11.00;85.60;100707.50;4983928;28;20174;-48
2022/11/13 07:25:26;;;;;;;136.60;9.15;;;;;;;11.01;85.05;100701.44;4984708;28;20722;-49
2022/11/13 07:27:52;;;;;;;155.20;10.57;;;;;;;11.01;85.59;100698.00;4984263;28;20447;-51
2022/11/13 07:30:19;;;;;;;211.65;12.10;;;;;;;10.96;85.76;100697.09;4987575;28;20050;-50
2022/11/13 07:32:46;;;;;;;134.85;8.23;;;;;;;10.97;85.50;100691.91;4978324;28;20053;-51
2022/11/13 07:35:13;;;;;;;182.75;10.73;;;;;;;10.99;85.27;100690.22;4988049;28;20078;-51
2022/11/13 07:37:40;;;;;;;149.75;8.82;;;;;;;10.97;85.84;100689.31;4986528;28;20132;-52
2022/11/13 07:40:07;;;;;;;187.45;10.20;;;;;;;11.00;86.17;100699.72;4985250;28;20466;-52
2022/11/13 07:42:34;;;;;;;164.38;10.57;;;;;;;11.04;86.14;100698.88;4981857;28;20043;-52
2022/11/13 07:45:00;;;;;;;150.32;9.63;;;;;;;11.01;85.45;100708.38;4998948;28;20511;-52
2022/11/13 07:47:27;;;;;;;193.57;10.48;;;;;;;11.06;86.26;100696.28;4980593;28;20146;-50
2022/11/13 07:49:54;;;;;;;179.77;9.50;;;;;;;11.10;85.90;100707.53;4985849;28;20502;-51
2022/11/13 07:52:29;;;;;;;155.10;10.85;;;;;;;11.11;84.93;100704.09;4979005;28;20132;-52
2022/11/13 07:54:56;;;;;;;218.27;12.38;;;;;;;11.15;85.54;100700.66;4982854;28;20046;-51
2022/11/13 07:57:23;;;;;;;147.95;8.93;;;;;;;11.02;86.10;100694.53;4981973;28;20711;-53
2022/11/13 07:59:50;;;;;;;158.48;9.10;;;;;;;11.02;86.52;100695.38;4981946;28;20077;-50
2022/11/13 08:02:17;;;;;;;113.07;8.23;;;;;;;11.07;86.37;100689.38;4982221;28;20058;-49
2022/11/13 08:04:50;;;;;;;155.35;9.77;;;;;;;11.05;85.91;100695.41;4983797;28;20116;-51
2022/11/13 08:07:17;;;;;;;170.50;9.70;;;;;;;11.12;86.22;100692.88;4984185;28;20136;-49
2022/11/13 08:09:43;;;;;;;118.68;9.25;;;;;;;11.05;85.77;100695.41;4984118;28;20402;-51
2022/11/13 08:12:10;;;;;;;149.98;9.65;;;;;;;11.07;85.73;100692.81;4984607;28;20128;-49
2022/11/13 08:14:37;;;;;;;143.10;7.82;;;;;;;11.03;85.68;100697.16;4977584;28;20553;-49
2022/11/13 08:17:03;;;;;;;211.65;11.98;;;;;;;11.11;86.82;100693.72;4983243;28;20108;-50
2022/11/13 08:19:30;;;;;;;156.73;10.00;;;;;;;11.03;86.40;100697.16;4979293;28;20142;-50
2022/11/13 08:21:57;;;;;;;111.05;8.35;;;;;;;11.04;86.31;100693.69;4984183;28;20043;-49
2022/11/13 08:24:23;;;;;;;134.05;9.60;;;;;;;11.12;86.72;100695.47;4985594;28;20104;-50
2022/11/13 08:26:50;;;;;;;215.55;11.90;;;;;;;11.15;85.53;100691.13;4984817;28;20050;-52
2022/11/13 08:29:17;;;;;;;129.98;8.73;;;;;;;11.19;85.15;100686.84;4976784;28;20137;-48
2022/11/13 08:31:43;;;;;;;137.23;8.90;;;;;;;11.19;85.42;100689.44;4974755;28;20414;-49
2022/11/13 08:34:10;;;;;;;160.38;10.45;;;;;;;11.19;85.49;100690.28;4983156;28;20121;-52
2022/11/13 08:36:37;;;;;;;134.25;9.65;;;;;;;11.20;86.23;100693.75;4982200;28;20058;-51
2022/11/13 08:39:04;;;;;;;127.05;9.95;;;;;;;11.25;86.10;100696.38;4984613;28;20545;-51
2022/11/13 08:41:31;;;;;;;88.45;8.13;;;;;;;11.23;86.54;100691.19;4982460;28;20050;-53
2022/11/13 08:43:59;;;;;;;90.05;7.40;;;;;;;11.22;86.22;100688.59;4983929;28;20108;-53
2022/11/13 08:46:26;;;;;;;204.07;10.98;;;;;;;11.27;85.17;100685.16;4979820;28;20051;-50
2022/11/13 08:48:52;;;;;;;152.60;9.45;;;;;;;11.27;86.10;100687.75;4983705;28;20054;-50
2022/11/13 08:51:19;;;;;;;184.80;11.65;;;;;;;11.35;85.06;100687.78;4984031;28;20105;-53
2022/11/13 08:53:46;;;;;;;156.13;10.68;;;;;;;11.36;86.44;100683.47;4980763;28;20046;-53
2022/11/13 08:56:13;;;;;;;209.73;11.38;;;;;;;11.34;85.92;100678.25;4978805;28;20133;-51
2022/11/13 08:58:39;;;;;;;206.75;10.15;;;;;;;11.31;85.91;100675.66;4978188;28;20054;-52
2022/11/13 09:01:06;;;;;;;146.25;9.05;;;;;;;11.29;85.31;100683.44;4979992;28;20501;-51
2022/11/13 09:03:34;;;;;;;197.93;11.02;;;;;;;11.31;86.30;100675.66;4981796;28;20042;-52
2022/11/13 09:06:06;;;;;;;130.98;8.38;;;;;;;11.31;86.27;100675.66;4982495;28;20082;-50
2022/11/13 09:08:32;;;;;;;47.08;5.97;;;;;;;11.24;86.14;100669.59;4983780;28;20133;-53
2022/11/13 09:11:04;;;;;;;151.48;9.68;;;;;;;11.28;85.98;100665.28;4977524;28;20133;-52
2022/11/13 09:13:32;;;;;;;104.25;7.50;;;;;;;11.29;85.80;100662.69;4980563;28;20050;-50
2022/11/13 09:16:01;;;;;;;165.35;9.52;;;;;;;11.31;86.16;100649.72;4962440;28;20050;-50
2022/11/13 09:18:28;;;;;;;158.23;10.05;;;;;;;11.42;85.41;100662.75;4983384;28;20133;-49
2022/11/13 09:21:01;;;;;;;148.25;10.63;;;;;;;11.34;87.12;100648.91;4982830;28;20406;-49
2022/11/13 09:23:28;;;;;;;218.13;12.07;;;;;;;11.37;86.94;100654.94;4977010;28;20074;-49
2022/11/13 09:25:55;;;;;;;79.80;6.93;;;;;;;11.30;86.75;100654.06;4979597;28;20086;-49
2022/11/13 09:28:22;;;;;;;126.47;8.90;;;;;;;11.42;86.39;100644.59;4978824;28;20469;-53
2022/11/13 09:30:48;;;;;;;146.40;10.13;;;;;;;11.37;86.64;100651.47;4981082;28;20068;-50
2022/11/13 11:54:41;;;;;;;23.48;9.20;;;;;;;11.21;91.33;100524.38;4976669;28;20901;-50
2022/11/13 12:00:08;;;;;;;12.77;6.00;;;;;;;11.36;91.14;100518.34;5038033;27;20895;-51
2022/11/13 12:05:50;;;;;;;12.15;5.45;;;;;;;11.50;89.65;100497.63;5026647;27;20398;-50
2022/11/13 12:08:46;;;;;;;14.32;5.30;;;;;;;11.55;88.80;100487.25;5004399;28;20069;-51
2022/11/13 12:14:03;;;;;;;12.95;5.55;;;;;;;11.74;88.91;100480.31;5041776;28;20408;-48
2022/11/13 12:19:26;;;;;;;12.25;6.88;;;;;;;12.01;88.15;100480.28;5040068;27;20934;-49
2022/11/13 12:22:06;;;;;;;13.50;6.28;;;;;;;12.16;87.14;100475.09;4991879;28;20308;-51
2022/11/13 12:30:16;;;;;;;12.85;5.35;;;;;;;12.56;86.03;100487.09;5051080;28;20416;-51
2022/11/13 12:35:23;;;;;;;12.50;6.70;;;;;;;12.67;85.52;100483.59;5011416;28;20399;-52
2022/11/13 12:37:57;;;;;;;15.55;6.15;;;;;;;12.75;85.71;100484.41;4984532;28;20195;-48
2022/11/13 12:45:51;;;;;;;12.38;6.03;;;;;;;13.16;85.53;100473.78;5078294;27;20402;-51
2022/11/13 12:50:59;;;;;;;11.32;5.63;;;;;;;13.21;84.57;100477.22;5020430;27;20403;-48
2022/11/13 12:53:28;;;;;;;11.82;5.90;;;;;;;13.18;83.90;100472.03;5015238;28;20759;-48
2022/11/13 12:56:00;;;;;;;12.43;5.05;;;;;;;13.11;83.54;100466.88;5017350;28;20815;-50
2022/11/13 12:58:29;;;;;;;11.75;6.05;;;;;;;13.04;83.76;100459.97;5013076;28;20793;-51
2022/11/13 13:17:26;;;;;;;13.38;7.25;;;;;;;13.14;82.44;100436.53;5025931;27;20419;-49
2022/11/13 13:22:35;;;;;;;10.98;5.03;;;;;;;13.04;82.80;100431.38;5080764;27;20426;-48
2022/11/13 13:25:21;;;;;;;13.10;5.13;;;;;;;12.97;81.75;100429.72;5059124;28;20106;-47
2022/11/13 13:30:56;;;;;;;12.63;6.47;;;;;;;12.85;81.69;100423.72;5050723;27;20404;-50
2022/11/13 13:33:49;;;;;;;13.88;6.43;;;;;;;12.82;82.03;100418.53;5006912;28;20473;-49
2022/11/13 13:47:23;;;;;;;13.32;5.53;;;;;;;12.53;81.90;100403.09;5035083;27;20402;-48
2022/11/13 13:49:51;;;;;;;13.30;5.88;;;;;;;12.47;81.55;100407.44;5028257;28;20092;-48
2022/11/13 13:52:25;;;;;;;12.05;5.32;;;;;;;12.43;81.76;100410.09;4996522;28;20062;-49
2022/11/13 13:54:52;;;;;;;15.00;5.72;;;;;;;12.41;82.31;100412.69;4996965;28;20097;-50
2022/11/13 13:57:19;;;;;;;12.98;5.60;;;;;;;12.47;82.55;100406.59;5013752;28;20145;-50
2022/11/13 13:59:46;;;;;;;13.88;6.75;;;;;;;12.47;83.53;100411.78;5014318;28;20053;-50
2022/11/13 14:02:17;;;;;;;14.85;6.65;;;;;;;12.56;82.76;100416.06;5011362;28;20076;-47
2022/11/13 14:04:46;;;;;;;10.35;5.32;;;;;;;12.38;82.79;100412.69;5016117;28;20092;-48
2022/11/13 14:07:29;;;;;;;12.50;4.82;;;;;;;12.30;82.86;100404.91;5017481;28;20049;-47
2022/11/13 14:10:16;;;;;;;;;;;;;;;12.24;83.81;100394.56;5018382;28;20103;-49
2022/11/13 14:12:44;;;;;;;11.75;5.53;;;;;;;12.39;82.72;100395.38;5038864;28;19993;-49
2022/11/13 14:15:32;;;;;;;14.10;7.43;;;;;;;12.34;83.41;100388.44;5014627;28;21078;-52
2022/11/13 14:18:10;;;;;;;16.17;6.38;;;;;;;12.33;83.22;100383.28;5013466;28;20145;-48
2022/11/13 14:23:23;;;;;;;11.73;5.65;;;;;;;12.14;82.64;100362.59;5010139;28;20956;-49
2022/11/13 14:25:51;;;;;;;16.80;6.22;;;;;;;12.17;83.95;100366.91;4969125;28;20105;-51
2022/11/13 14:28:20;;;;;;;14.20;6.30;;;;;;;12.14;82.79;100356.53;4976131;28;20137;-48
2022/11/13 14:31:00;;;;;;;11.52;5.82;;;;;;;12.06;83.85;100357.41;4992684;28;20134;-48
2022/11/13 14:33:31;;;;;;;13.88;6.45;;;;;;;12.02;83.05;100358.25;4969857;28;20149;-48
2022/11/13 14:35:59;;;;;;;19.10;6.43;;;;;;;12.01;82.73;100351.34;4976753;28;20192;-48
2022/11/13 14:38:28;;;;;;;13.10;6.65;;;;;;;12.08;82.86;100349.63;4980670;28;20133;-51
2022/11/13 14:40:57;;;;;;;20.88;7.10;;;;;;;12.06;83.97;100339.25;4976267;28;20509;-47
2022/11/13 14:43:31;;;;;;;17.10;5.75;;;;;;;12.02;83.11;100342.69;4976188;28;20133;-46
2022/11/13 14:46:00;;;;;;;12.18;5.28;;;;;;;11.99;83.23;100341.84;4975425;28;20130;-50
2022/11/13 14:48:30;;;;;;;12.95;6.57;;;;;;;11.95;84.31;100340.97;4973499;28;20081;-48
2022/11/13 14:50:59;;;;;;;12.73;5.88;;;;;;;12.01;83.78;100346.16;4976542;28;20097;-49